createdAt,value
2017-09-07T00:02:23.137Z,57.50
2017-09-07T00:04:50.754Z,57.70
2017-09-07T00:07:18.422Z,58.50
2017-09-07T00:09:46.042Z,59.10
2017-09-07T00:12:13.681Z,57.70
2017-09-07T00:14:41.337Z,56.50
2017-09-07T00:17:08.963Z,57.90
2017-09-07T00:19:36.629Z,56.20
2017-09-07T00:22:04.254Z,56.20
2017-09-07T00:24:31.884Z,56.80
2017-09-07T00:26:59.574Z,57.20
2017-09-07T00:29:27.211Z,58.00
2017-09-07T00:31:54.867Z,59.20
2017-09-07T00:36:56.616Z,60.30
2017-09-07T00:39:24.262Z,60.90
2017-09-07T00:41:51.891Z,61.20
2017-09-07T00:44:19.530Z,62.10
2017-09-07T00:46:47.162Z,63.80
2017-09-07T00:49:14.820Z,63.90
2017-09-07T00:51:42.454Z,64.20
2017-09-07T00:54:10.073Z,63.40
2017-09-07T00:56:37.734Z,64.30
2017-09-07T00:59:05.376Z,64.20
2017-09-07T01:01:33.037Z,64.00
2017-09-07T01:04:00.659Z,64.30
2017-09-07T01:06:28.280Z,62.90
2017-09-07T01:08:55.932Z,63.10
2017-09-07T01:11:23.564Z,64.00
2017-09-07T01:13:51.248Z,64.50
2017-09-07T01:16:18.872Z,63.30
2017-09-07T01:18:46.494Z,62.00
2017-09-07T01:21:14.156Z,62.00
2017-09-07T01:23:41.776Z,62.60
2017-09-07T01:26:09.484Z,61.70
2017-09-07T01:28:37.105Z,61.30
2017-09-07T01:31:05.496Z,60.00
2017-09-07T01:33:33.143Z,60.00
2017-09-07T01:36:00.763Z,60.90
2017-09-07T01:38:28.427Z,61.90
2017-09-07T01:40:56.056Z,61.10
2017-09-07T01:43:23.675Z,59.50
2017-09-07T01:45:51.318Z,58.40
2017-09-07T01:48:30.735Z,59.60
2017-09-07T01:50:58.401Z,60.10
2017-09-07T01:53:26.022Z,60.00
2017-09-07T01:55:53.643Z,58.30
2017-09-07T01:58:21.294Z,59.10
2017-09-07T02:00:48.911Z,59.80
2017-09-07T02:03:16.571Z,58.30
2017-09-07T02:05:44.197Z,59.00
2017-09-07T02:08:11.828Z,59.90
2017-09-07T02:10:39.473Z,58.60
2017-09-07T02:13:07.096Z,58.70
2017-09-07T02:15:34.755Z,58.60
2017-09-07T02:18:02.373Z,59.90
2017-09-07T02:20:29.995Z,58.20
2017-09-07T02:22:57.637Z,58.60
2017-09-07T02:25:29.099Z,59.60
2017-09-07T02:27:56.760Z,60.60
2017-09-07T02:30:24.385Z,60.90
2017-09-07T02:32:52.010Z,62.10
2017-09-07T02:35:19.659Z,61.90
2017-09-07T02:37:47.284Z,60.30
2017-09-07T02:40:14.947Z,60.70
2017-09-07T02:42:42.576Z,62.30
2017-09-07T02:45:10.204Z,60.10
2017-09-07T02:47:37.850Z,61.00
2017-09-07T02:50:05.463Z,60.90
2017-09-07T02:52:33.124Z,62.00
2017-09-07T02:55:00.745Z,60.10
2017-09-07T02:57:28.367Z,60.00
2017-09-07T02:59:56.011Z,61.90
2017-09-07T03:02:23.632Z,60.60
2017-09-07T03:04:51.296Z,62.40
2017-09-07T03:07:18.920Z,61.80
2017-09-07T03:09:46.547Z,61.30
2017-09-07T03:12:14.204Z,61.60
2017-09-07T03:14:41.823Z,61.30
2017-09-07T03:17:09.483Z,62.30
2017-09-07T03:19:37.108Z,61.70
2017-09-07T03:22:04.736Z,62.10
2017-09-07T03:24:32.393Z,61.30
2017-09-07T03:27:00.047Z,61.50
2017-09-07T03:29:27.716Z,61.40
2017-09-07T03:31:55.343Z,63.10
2017-09-07T03:34:23.225Z,62.90
2017-09-07T03:36:50.876Z,64.10
2017-09-07T03:39:18.541Z,63.10
2017-09-07T03:41:46.200Z,64.70
2017-09-07T03:44:13.829Z,62.90
2017-09-07T03:46:41.458Z,62.10
2017-09-07T03:49:09.123Z,62.60
2017-09-07T03:51:36.747Z,63.10
2017-09-07T03:54:04.403Z,64.10
2017-09-07T03:56:32.027Z,62.90
2017-09-07T03:58:59.647Z,62.70
2017-09-07T04:01:27.295Z,62.90
2017-09-07T04:03:54.912Z,63.70
2017-09-07T04:06:22.586Z,63.90
2017-09-07T04:08:50.296Z,63.40
2017-09-07T04:11:17.923Z,63.50
2017-09-07T04:13:45.571Z,63.70
2017-09-07T04:16:13.201Z,63.80
2017-09-07T04:18:40.875Z,64.40
2017-09-07T04:21:08.503Z,63.00
2017-09-07T04:23:36.123Z,63.30
2017-09-07T04:26:03.774Z,64.30
2017-09-07T04:28:31.504Z,62.90
2017-09-07T04:30:59.171Z,62.90
2017-09-07T04:33:26.789Z,64.00
2017-09-07T04:35:54.408Z,62.70
2017-09-07T04:38:22.117Z,63.50
2017-09-07T04:40:49.752Z,62.60
2017-09-07T04:43:17.408Z,63.70
2017-09-07T04:45:45.020Z,64.10
2017-09-07T04:48:13.425Z,65.30
2017-09-07T04:50:41.079Z,65.30
2017-09-07T04:53:08.702Z,65.70
2017-09-07T04:55:36.363Z,63.30
2017-09-07T04:58:03.987Z,65.50
2017-09-07T05:00:31.616Z,64.40
2017-09-07T05:02:59.272Z,62.20
2017-09-07T05:05:26.936Z,62.70
2017-09-07T05:07:54.608Z,62.40
2017-09-07T05:10:22.234Z,63.70
2017-09-07T05:12:49.859Z,64.70
2017-09-07T05:15:17.507Z,62.70
2017-09-07T05:17:45.131Z,62.10
2017-09-07T05:20:12.795Z,63.70
2017-09-07T05:22:40.415Z,63.40
2017-09-07T05:25:08.042Z,61.70
2017-09-07T05:27:35.704Z,61.20
2017-09-07T05:30:03.324Z,62.90
2017-09-07T05:32:31.102Z,61.90
2017-09-07T05:34:59.487Z,62.80
2017-09-07T05:37:27.116Z,62.70
2017-09-07T05:39:54.764Z,61.20
2017-09-07T05:42:22.396Z,61.50
2017-09-07T05:44:50.062Z,59.90
2017-09-07T05:47:17.688Z,60.30
2017-09-07T05:49:45.322Z,59.30
2017-09-07T05:52:12.971Z,59.70
2017-09-07T05:54:40.597Z,60.40
2017-09-07T05:57:08.263Z,60.70
2017-09-07T05:59:35.892Z,58.10
2017-09-07T06:02:03.510Z,60.20
2017-09-07T06:04:31.164Z,60.20
2017-09-07T06:06:58.805Z,58.80
2017-09-07T06:09:26.463Z,61.90
2017-09-07T06:11:54.107Z,58.70
2017-09-07T06:14:21.740Z,58.70
2017-09-07T06:16:49.391Z,58.00
2017-09-07T06:19:17.007Z,58.10
2017-09-07T06:21:44.667Z,59.20
2017-09-07T06:24:13.483Z,58.70
2017-09-07T06:26:41.107Z,58.60
2017-09-07T06:29:08.768Z,60.10
2017-09-07T06:31:36.396Z,57.70
2017-09-07T06:34:04.064Z,56.20
2017-09-07T06:36:31.685Z,57.70
2017-09-07T06:38:59.308Z,59.20
2017-09-07T06:41:26.959Z,58.00
2017-09-07T06:43:54.590Z,55.70
2017-09-07T06:46:22.257Z,53.70
2017-09-07T06:48:49.873Z,51.20
2017-09-07T06:51:17.497Z,53.10
2017-09-07T06:53:45.144Z,50.90
2017-09-07T06:56:12.776Z,54.90
2017-09-07T06:58:40.448Z,52.00
2017-09-07T07:01:08.084Z,51.20
2017-09-07T07:03:35.708Z,56.00
2017-09-07T07:06:03.355Z,54.50
2017-09-07T07:08:30.989Z,57.00
2017-09-07T07:10:58.652Z,56.70
2017-09-07T07:13:26.275Z,56.40
2017-09-07T07:15:53.896Z,52.50
2017-09-07T07:18:21.550Z,52.50
2017-09-07T07:20:49.176Z,54.90
2017-09-07T07:23:16.839Z,53.50
2017-09-07T07:25:44.476Z,53.70
2017-09-07T07:28:12.108Z,55.70
2017-09-07T07:30:39.760Z,54.60
2017-09-07T07:33:07.382Z,54.30
2017-09-07T07:35:35.042Z,54.80
2017-09-07T07:38:02.672Z,56.00
2017-09-07T07:40:30.300Z,54.50
2017-09-07T07:42:57.952Z,56.40
2017-09-07T07:45:25.591Z,55.90
2017-09-07T07:47:53.251Z,57.00
2017-09-07T07:50:20.947Z,55.80
2017-09-07T07:52:48.611Z,54.40
2017-09-07T07:55:16.999Z,54.90
2017-09-07T07:57:44.627Z,54.70
2017-09-07T08:00:12.276Z,56.50
2017-09-07T08:02:39.902Z,53.90
2017-09-07T08:05:07.576Z,53.40
2017-09-07T08:07:35.208Z,54.20
2017-09-07T08:10:02.852Z,52.30
2017-09-07T08:12:30.500Z,55.90
2017-09-07T08:14:58.129Z,52.20
2017-09-07T08:17:25.793Z,53.50
2017-09-07T08:19:53.421Z,55.60
2017-09-07T08:22:21.039Z,56.60
2017-09-07T08:24:48.690Z,54.90
2017-09-07T08:27:16.323Z,56.10
2017-09-07T08:29:43.988Z,57.90
2017-09-07T08:32:11.620Z,59.90
2017-09-07T08:34:39.248Z,62.90
2017-09-07T08:37:06.919Z,62.80
2017-09-07T08:39:34.540Z,66.10
2017-09-07T08:42:02.168Z,63.50
2017-09-07T08:44:29.824Z,55.80
2017-09-07T08:46:57.441Z,47.30
2017-09-07T08:49:25.039Z,43.00
2017-09-07T08:51:52.687Z,44.80
2017-09-07T08:54:20.321Z,40.50
2017-09-07T08:56:47.948Z,42.30
2017-09-07T08:59:15.621Z,45.50
2017-09-07T09:01:43.264Z,49.10
2017-09-07T09:04:10.888Z,49.30
2017-09-07T09:06:38.553Z,49.30
2017-09-07T09:09:06.178Z,53.00
2017-09-07T09:11:33.806Z,52.00
2017-09-07T09:14:01.468Z,54.10
2017-09-07T09:16:29.103Z,54.20
2017-09-07T09:18:56.743Z,51.50
2017-09-07T09:21:25.184Z,51.90
2017-09-07T09:23:52.811Z,52.00
2017-09-07T09:26:20.443Z,54.10
2017-09-07T09:28:48.107Z,55.40
2017-09-07T09:31:15.746Z,55.80
2017-09-07T09:33:43.381Z,55.60
2017-09-07T09:36:11.043Z,57.20
2017-09-07T09:38:38.669Z,55.60
2017-09-07T09:41:06.295Z,57.40
2017-09-07T09:43:33.956Z,58.50
2017-09-07T09:46:01.587Z,55.10
2017-09-07T09:48:29.216Z,54.30
2017-09-07T09:50:56.883Z,57.00
2017-09-07T09:53:24.513Z,53.70
2017-09-07T09:55:52.141Z,52.10
2017-09-07T09:58:19.812Z,53.90
2017-09-07T10:00:47.447Z,52.00
2017-09-07T10:03:15.852Z,53.90
2017-09-07T10:05:43.516Z,54.00
2017-09-07T10:08:11.156Z,51.60
2017-09-07T10:10:38.783Z,49.30
2017-09-07T10:13:06.443Z,45.60
2017-09-07T10:15:34.069Z,47.70
2017-09-07T10:18:01.700Z,52.10
2017-09-07T10:20:29.363Z,53.80
2017-09-07T10:22:56.996Z,52.70
2017-09-07T10:25:24.620Z,51.50
2017-09-07T10:27:52.284Z,54.60
2017-09-07T10:30:19.907Z,54.10
2017-09-07T10:32:47.530Z,55.00
2017-09-07T10:35:15.190Z,50.40
2017-09-07T10:37:42.813Z,49.70
2017-09-07T10:40:10.447Z,50.10
2017-09-07T10:42:38.120Z,50.70
2017-09-07T10:45:05.749Z,50.30
2017-09-07T10:47:33.387Z,50.50
2017-09-07T10:50:01.059Z,48.20
2017-09-07T10:52:28.679Z,48.70
2017-09-07T10:54:56.299Z,44.10
2017-09-07T10:57:23.959Z,48.60
2017-09-07T10:59:51.591Z,48.00
2017-09-07T11:02:19.223Z,51.00
2017-09-07T11:04:46.890Z,52.60
2017-09-07T11:07:15.295Z,51.70
2017-09-07T11:09:42.928Z,51.60
2017-09-07T11:12:10.596Z,52.30
2017-09-07T11:14:38.228Z,54.80
2017-09-07T11:17:05.863Z,57.20
2017-09-07T11:19:33.524Z,56.60
2017-09-07T11:22:01.155Z,52.70
2017-09-07T11:24:28.775Z,54.90
2017-09-07T11:26:56.440Z,55.60
2017-09-07T11:29:24.076Z,54.70
2017-09-07T11:31:51.699Z,54.70
2017-09-07T11:34:19.355Z,52.70
2017-09-07T11:36:46.980Z,55.80
2017-09-07T11:39:14.609Z,59.40
2017-09-07T11:41:42.265Z,65.70
2017-09-07T11:44:09.889Z,66.00
2017-09-07T11:46:37.518Z,67.10
2017-09-07T11:49:05.188Z,69.90
2017-09-07T11:51:32.820Z,66.50
2017-09-07T11:54:00.462Z,69.70
2017-09-07T11:56:28.124Z,68.30
2017-09-07T11:58:55.748Z,67.00
2017-09-07T12:01:23.371Z,72.50
2017-09-07T12:03:51.026Z,76.10
2017-09-07T12:06:18.656Z,78.90
2017-09-07T12:08:46.275Z,86.80
2017-09-07T12:11:13.960Z,86.20
2017-09-07T12:13:42.343Z,83.70
2017-09-07T12:16:09.965Z,83.60
2017-09-07T12:18:37.632Z,79.40
2017-09-07T12:21:05.256Z,85.20
2017-09-07T12:23:32.891Z,83.90
2017-09-07T12:26:00.560Z,79.40
2017-09-07T12:28:28.190Z,76.70
2017-09-07T12:30:55.824Z,75.00
2017-09-07T12:33:23.480Z,72.60
2017-09-07T12:35:51.104Z,65.90
2017-09-07T12:38:18.735Z,61.50
2017-09-07T12:40:46.396Z,60.10
2017-09-07T12:43:14.037Z,60.30
2017-09-07T12:45:41.646Z,60.30
2017-09-07T12:48:09.296Z,54.50
2017-09-07T12:50:36.924Z,54.80
2017-09-07T12:53:04.527Z,60.90
2017-09-07T12:55:32.188Z,60.40
2017-09-07T12:57:59.811Z,47.70
2017-09-07T13:00:27.440Z,52.70
2017-09-07T13:02:55.102Z,55.40
2017-09-07T13:05:22.712Z,54.90
2017-09-07T13:07:50.340Z,51.80
2017-09-07T13:10:17.989Z,50.40
2017-09-07T13:12:45.596Z,45.10
2017-09-07T13:15:13.218Z,47.90
2017-09-07T13:17:40.872Z,45.30
2017-09-07T13:20:08.491Z,44.30
2017-09-07T13:22:36.100Z,39.40
2017-09-07T13:25:03.770Z,44.50
2017-09-07T13:27:31.373Z,49.50
2017-09-07T13:29:58.967Z,46.30
2017-09-07T13:32:26.636Z,40.40
2017-09-07T13:34:54.239Z,44.50
2017-09-07T13:37:21.861Z,40.20
2017-09-07T13:39:49.499Z,33.10
2017-09-07T13:42:17.097Z,27.60
2017-09-07T13:44:44.703Z,29.30
2017-09-07T13:47:12.361Z,31.50
2017-09-07T13:49:39.968Z,29.10
2017-09-07T13:52:07.575Z,30.30
2017-09-07T13:54:35.218Z,30.10
2017-09-07T13:57:02.833Z,29.50
2017-09-07T13:59:30.431Z,30.20
2017-09-07T14:01:58.083Z,23.30
2017-09-07T14:04:25.692Z,25.20
2017-09-07T14:06:53.297Z,26.50
2017-09-07T14:09:20.938Z,27.80
2017-09-07T14:11:48.559Z,28.90
2017-09-07T14:14:16.171Z,30.30
2017-09-07T14:16:43.816Z,33.90
2017-09-07T14:19:11.419Z,37.80
2017-09-07T14:21:39.022Z,36.10
2017-09-07T14:24:06.664Z,37.60
2017-09-07T14:26:34.271Z,37.90
2017-09-07T14:29:01.900Z,39.30
2017-09-07T14:31:29.566Z,39.70
2017-09-07T14:33:57.187Z,41.30
2017-09-07T14:36:24.818Z,43.50
2017-09-07T14:38:52.467Z,39.90
2017-09-07T14:41:20.095Z,40.40
2017-09-07T14:43:47.723Z,39.90
2017-09-07T14:46:15.366Z,38.80
2017-09-07T14:51:17.072Z,36.60
2017-09-07T14:53:44.787Z,39.80
2017-09-07T14:56:12.428Z,41.60
2017-09-07T14:58:40.091Z,38.80
2017-09-07T15:01:07.715Z,38.60
2017-09-07T15:03:35.320Z,41.80
2017-09-07T15:06:02.996Z,38.30
2017-09-07T15:08:30.643Z,41.50
2017-09-07T15:10:58.281Z,39.80
2017-09-07T15:13:25.956Z,39.90
2017-09-07T15:15:53.593Z,42.30
2017-09-07T15:18:21.238Z,41.80
2017-09-07T15:20:48.911Z,41.60
2017-09-07T15:23:16.541Z,45.70
2017-09-07T15:25:44.170Z,39.70
2017-09-07T15:28:11.844Z,39.80
2017-09-07T15:30:39.481Z,39.20
2017-09-07T15:33:07.107Z,42.50
2017-09-07T15:35:34.783Z,42.30
2017-09-07T15:38:02.407Z,42.80
2017-09-07T15:40:30.146Z,43.30
2017-09-07T15:42:57.820Z,38.40
2017-09-07T15:45:25.460Z,38.20
2017-09-07T15:47:53.088Z,41.50
2017-09-07T15:50:20.994Z,39.00
2017-09-07T15:52:48.620Z,42.60
2017-09-07T15:55:16.249Z,40.70
2017-09-07T15:57:43.920Z,38.80
2017-09-07T16:00:11.563Z,38.30
2017-09-07T16:02:39.273Z,37.30
2017-09-07T16:05:06.939Z,39.00
2017-09-07T16:07:34.592Z,36.00
2017-09-07T16:10:02.225Z,40.30
2017-09-07T16:12:30.215Z,37.80
2017-09-07T16:14:57.843Z,38.90
2017-09-07T16:17:25.464Z,37.70
2017-09-07T16:19:53.140Z,35.30
2017-09-07T16:22:20.770Z,38.00
2017-09-07T16:24:48.396Z,37.20
2017-09-07T16:27:16.308Z,35.60
2017-09-07T16:29:43.957Z,39.00
2017-09-07T16:32:11.585Z,34.90
2017-09-07T16:34:39.268Z,36.00
2017-09-07T16:37:06.893Z,35.90
2017-09-07T16:39:34.631Z,36.40
2017-09-07T16:42:02.324Z,32.60
2017-09-07T16:44:29.970Z,35.70
2017-09-07T16:46:57.611Z,34.80
2017-09-07T16:49:25.267Z,35.00
2017-09-07T16:51:52.985Z,38.20
2017-09-07T16:54:20.616Z,35.30
2017-09-07T16:56:48.280Z,36.90
2017-09-07T16:59:15.911Z,39.10
2017-09-07T17:01:43.558Z,38.60
2017-09-07T17:04:11.215Z,38.90
2017-09-07T17:06:38.835Z,42.10
2017-09-07T17:09:06.467Z,41.40
2017-09-07T17:11:39.176Z,39.30
2017-09-07T17:14:06.795Z,40.20
2017-09-07T17:16:34.451Z,43.90
2017-09-07T17:19:02.089Z,43.20
2017-09-07T17:21:29.713Z,42.40
2017-09-07T17:23:57.393Z,41.50
2017-09-07T17:26:25.072Z,42.30
2017-09-07T17:28:52.722Z,40.80
2017-09-07T17:31:20.491Z,43.80
2017-09-07T17:33:48.145Z,40.70
2017-09-07T17:36:15.815Z,43.70
2017-09-07T17:38:43.471Z,48.00
2017-09-07T17:41:11.142Z,49.00
2017-09-07T17:43:38.809Z,45.80
2017-09-07T17:46:06.496Z,51.00
2017-09-07T17:48:34.115Z,43.30
2017-09-07T17:51:01.786Z,49.00
2017-09-07T17:53:29.500Z,43.60
2017-09-07T17:55:57.207Z,47.80
2017-09-07T17:58:24.835Z,46.50
2017-09-07T18:00:52.597Z,43.00
2017-09-07T18:03:20.327Z,42.80
2017-09-07T18:05:47.948Z,40.50
2017-09-07T18:08:15.600Z,41.80
2017-09-07T18:10:43.380Z,42.30
2017-09-07T18:13:11.004Z,43.70
2017-09-07T18:15:38.659Z,42.40
2017-09-07T18:18:06.389Z,43.00
2017-09-07T18:20:34.079Z,44.00
2017-09-07T18:23:01.935Z,47.40
2017-09-07T18:25:29.592Z,45.50
2017-09-07T18:27:57.403Z,50.60
2017-09-07T18:30:25.094Z,52.10
2017-09-07T18:32:52.909Z,54.90
2017-09-07T18:35:20.588Z,48.00
2017-09-07T18:37:48.505Z,46.70
2017-09-07T18:40:16.152Z,45.30
2017-09-07T18:42:43.780Z,44.30
2017-09-07T18:45:12.848Z,43.80
2017-09-07T18:47:40.542Z,44.40
2017-09-07T18:50:08.192Z,45.50
2017-09-07T18:52:35.853Z,47.90
2017-09-07T18:55:03.470Z,46.50
2017-09-07T18:57:31.183Z,47.80
2017-09-07T18:59:58.847Z,48.20
2017-09-07T19:02:26.545Z,47.70
2017-09-07T19:04:54.185Z,45.50
2017-09-07T19:07:21.879Z,46.20
2017-09-07T19:09:49.519Z,45.90
2017-09-07T19:12:17.151Z,48.90
2017-09-07T19:14:44.834Z,46.20
2017-09-07T19:17:12.467Z,49.70
2017-09-07T19:19:40.091Z,47.80
2017-09-07T19:22:07.753Z,48.20
2017-09-07T19:24:42.420Z,49.20
2017-09-07T19:27:10.577Z,51.50
2017-09-07T19:29:38.618Z,50.30
2017-09-07T19:32:06.264Z,52.10
2017-09-07T19:34:33.939Z,54.70
2017-09-07T19:37:03.300Z,51.70
2017-09-07T19:39:30.963Z,53.40
2017-09-07T19:41:59.380Z,55.10
2017-09-07T19:44:28.360Z,53.50
2017-09-07T19:46:55.990Z,53.60
2017-09-07T19:49:23.663Z,55.30
2017-09-07T19:51:51.285Z,54.30
2017-09-07T19:54:18.909Z,56.10
2017-09-07T19:56:46.573Z,55.60
2017-09-07T19:59:14.199Z,56.70
2017-09-07T20:01:41.827Z,59.10
2017-09-07T20:04:09.479Z,58.30
2017-09-07T20:06:37.099Z,59.50
2017-09-07T20:09:04.714Z,61.20
2017-09-07T20:11:32.384Z,60.80
2017-09-07T20:14:00.038Z,62.10
2017-09-07T20:16:27.660Z,61.20
2017-09-07T20:18:55.327Z,63.30
2017-09-07T20:21:22.951Z,66.20
2017-09-07T20:23:50.614Z,67.00
2017-09-07T20:26:18.454Z,66.70
2017-09-07T20:28:46.118Z,69.10
2017-09-07T20:31:13.744Z,70.70
2017-09-07T20:33:41.433Z,68.80
2017-09-07T20:36:09.061Z,70.30
2017-09-07T20:38:36.687Z,72.50
2017-09-07T20:41:05.727Z,73.60
2017-09-07T20:43:33.349Z,73.60
2017-09-07T20:46:00.987Z,75.80
2017-09-07T20:48:28.643Z,75.70
2017-09-07T20:50:56.272Z,76.70
2017-09-07T20:53:23.899Z,76.80
2017-09-07T20:55:52.319Z,77.10
2017-09-07T20:58:19.944Z,77.00
2017-09-07T21:00:47.563Z,77.00
2017-09-07T21:03:15.215Z,77.00
2017-09-07T21:05:42.839Z,78.90
2017-09-07T21:08:10.461Z,79.70
2017-09-07T21:10:38.133Z,80.50
2017-09-07T21:13:05.756Z,80.80
2017-09-07T21:15:33.374Z,81.00
2017-09-07T21:18:01.031Z,82.30
2017-09-07T21:20:28.648Z,82.50
2017-09-07T21:22:56.323Z,82.90
2017-09-07T21:25:24.282Z,83.10
2017-09-07T21:27:51.903Z,82.90
2017-09-07T21:30:19.532Z,82.80
2017-09-07T21:32:47.188Z,82.70
2017-09-07T21:35:14.817Z,83.60
2017-09-07T21:37:42.642Z,84.60
2017-09-07T21:40:10.308Z,85.10
2017-09-07T21:42:38.123Z,83.90
2017-09-07T21:45:05.746Z,84.00
2017-09-07T21:47:33.408Z,83.70
2017-09-07T21:50:01.035Z,83.50
2017-09-07T21:52:28.664Z,83.30
2017-09-07T21:54:56.323Z,81.70
2017-09-07T21:57:23.944Z,78.90
2017-09-07T21:59:51.672Z,80.00
2017-09-07T22:02:19.338Z,79.00
2017-09-07T22:04:46.969Z,78.90
2017-09-07T22:07:14.603Z,80.90
2017-09-07T22:09:42.261Z,80.70
2017-09-07T22:12:09.887Z,78.70
2017-09-07T22:14:37.507Z,78.30
2017-09-07T22:17:05.167Z,77.70
2017-09-07T22:19:32.858Z,75.50
2017-09-07T22:22:00.492Z,76.50
2017-09-07T22:24:28.148Z,71.30
2017-09-07T22:26:55.771Z,70.10
2017-09-07T22:29:24.826Z,71.40
2017-09-07T22:31:52.487Z,71.50
2017-09-07T22:34:20.573Z,73.90
2017-09-07T22:36:48.196Z,72.10
2017-09-07T22:39:16.456Z,70.00
2017-09-07T22:41:44.911Z,70.60
2017-09-07T22:44:13.218Z,72.50
2017-09-07T22:46:42.294Z,73.60
2017-09-07T22:49:10.437Z,72.10
2017-09-07T22:51:38.332Z,71.50
2017-09-07T22:54:05.991Z,73.20
2017-09-07T22:56:33.613Z,72.70
2017-09-07T22:59:01.240Z,75.40
2017-09-07T23:01:28.900Z,73.90
2017-09-07T23:03:57.288Z,71.20
2017-09-07T23:06:24.918Z,71.20
2017-09-07T23:08:52.581Z,73.00
2017-09-07T23:11:20.699Z,72.50
2017-09-07T23:13:48.334Z,74.10
2017-09-07T23:16:15.988Z,76.20
2017-09-07T23:18:43.610Z,77.40
2017-09-07T23:21:11.234Z,78.20
2017-09-07T23:23:38.901Z,79.10
2017-09-07T23:26:06.523Z,77.10
2017-09-07T23:28:34.147Z,77.00
2017-09-07T23:31:01.796Z,75.80
2017-09-07T23:33:29.423Z,74.10
2017-09-07T23:35:57.052Z,75.70
2017-09-07T23:38:24.728Z,75.00
2017-09-07T23:40:53.111Z,75.40
2017-09-07T23:43:20.773Z,75.50
2017-09-07T23:45:48.424Z,76.70
2017-09-07T23:48:16.048Z,71.70
2017-09-07T23:50:43.673Z,72.80
2017-09-07T23:53:11.327Z,71.60
2017-09-07T23:55:38.950Z,75.40
2017-09-07T23:58:06.570Z,73.80
